createdAt,value
2022-10-20T00:01:57.770Z,23.15
2022-10-20T00:04:27.741Z,22.55
2022-10-20T00:06:57.808Z,19.98
2022-10-20T00:09:27.886Z,22.55
2022-10-20T00:11:57.898Z,21.63
2022-10-20T00:14:27.961Z,21.70
2022-10-20T00:16:57.937Z,22.23
2022-10-20T00:19:28.678Z,22.73
2022-10-20T00:21:59.125Z,22.60
2022-10-20T00:24:29.237Z,22.52
2022-10-20T00:26:59.217Z,22.42
2022-10-20T00:29:29.247Z,22.13
2022-10-20T00:31:59.357Z,22.52
2022-10-20T00:34:29.543Z,23.25
2022-10-20T00:36:59.589Z,24.60
2022-10-20T00:39:29.652Z,24.83
2022-10-20T00:41:59.697Z,23.73
2022-10-20T00:44:55.140Z,22.77
2022-10-20T00:47:47.234Z,22.95
2022-10-20T00:50:39.938Z,23.50
2022-10-20T00:53:10.603Z,23.77
2022-10-20T00:55:44.997Z,21.80
2022-10-20T00:58:16.103Z,23.45
2022-10-20T01:00:47.731Z,21.42
2022-10-20T01:03:26.812Z,23.48
2022-10-20T01:05:56.892Z,22.35
2022-10-20T01:08:26.979Z,22.35
2022-10-20T01:11:36.157Z,21.45
2022-10-20T01:14:38.488Z,20.58
2022-10-20T01:17:39.466Z,22.40
2022-10-20T01:20:46.995Z,23.17
2022-10-20T01:23:45.559Z,21.10
2022-10-20T01:26:54.326Z,23.55
2022-10-20T01:29:39.162Z,22.98
2022-10-20T01:32:37.958Z,23.75
2022-10-20T01:35:36.507Z,21.90
2022-10-20T01:38:24.544Z,22.70
2022-10-20T01:43:33.585Z,22.25
2022-10-20T01:46:05.768Z,21.67
2022-10-20T01:48:39.718Z,21.65
2022-10-20T01:51:11.356Z,22.20
2022-10-20T01:53:41.377Z,23.13
2022-10-20T01:56:22.823Z,22.40
2022-10-20T01:59:25.919Z,21.60
2022-10-20T02:02:25.002Z,21.52
2022-10-20T02:05:29.671Z,22.52
2022-10-20T02:08:28.215Z,21.10
2022-10-20T02:11:04.786Z,20.33
2022-10-20T02:13:38.137Z,22.67
2022-10-20T02:16:20.319Z,20.73
2022-10-20T02:18:51.725Z,20.17
2022-10-20T02:21:21.848Z,20.42
2022-10-20T02:23:53.310Z,20.23
2022-10-20T02:26:27.168Z,21.63
2022-10-20T02:29:02.368Z,21.75
2022-10-20T02:31:32.004Z,21.02
2022-10-20T02:34:01.753Z,20.90
2022-10-20T02:36:32.276Z,21.83
2022-10-20T02:39:01.855Z,20.63
2022-10-20T02:41:32.668Z,21.58
2022-10-20T02:44:02.275Z,20.88
2022-10-20T02:46:32.306Z,20.88
2022-10-20T02:49:01.943Z,19.85
2022-10-20T02:51:35.013Z,19.95
2022-10-20T02:54:05.672Z,19.60
2022-10-20T02:56:36.002Z,19.77
2022-10-20T02:59:05.526Z,18.20
2022-10-20T03:01:35.313Z,19.20
2022-10-20T03:04:04.904Z,19.60
2022-10-20T03:06:34.471Z,19.17
2022-10-20T03:09:04.362Z,18.63
2022-10-20T03:11:34.089Z,18.60
2022-10-20T03:14:03.809Z,19.55
2022-10-20T03:16:33.398Z,18.90
2022-10-20T03:19:06.368Z,20.40
2022-10-20T03:21:37.356Z,18.13
2022-10-20T03:24:07.575Z,17.38
2022-10-20T03:26:37.412Z,18.15
2022-10-20T03:29:07.353Z,18.65
2022-10-20T03:31:37.297Z,19.50
2022-10-20T03:34:07.149Z,19.80
2022-10-20T03:36:38.211Z,18.88
2022-10-20T03:39:08.143Z,19.13
2022-10-20T03:41:38.021Z,18.52
2022-10-20T03:44:07.953Z,18.50
2022-10-20T03:46:37.857Z,17.92
2022-10-20T03:49:09.086Z,17.63
2022-10-20T03:51:38.901Z,17.10
2022-10-20T03:54:08.874Z,18.05
2022-10-20T03:56:39.019Z,16.38
2022-10-20T03:59:08.927Z,17.55
2022-10-20T04:01:38.979Z,17.27
2022-10-20T04:04:08.940Z,17.55
2022-10-20T04:06:41.361Z,16.55
2022-10-20T04:09:11.454Z,15.90
2022-10-20T04:11:41.366Z,16.15
2022-10-20T04:14:11.310Z,16.42
2022-10-20T04:16:41.313Z,15.88
2022-10-20T04:19:11.584Z,17.48
2022-10-20T04:21:41.507Z,17.42
2022-10-20T04:24:11.459Z,16.88
2022-10-20T04:26:41.409Z,17.48
2022-10-20T04:29:11.353Z,16.02
2022-10-20T04:31:44.191Z,15.75
2022-10-20T04:34:16.798Z,15.88
2022-10-20T04:36:46.762Z,15.95
2022-10-20T04:39:16.996Z,15.77
2022-10-20T04:41:46.993Z,15.02
2022-10-20T04:44:17.126Z,16.55
2022-10-20T04:46:47.444Z,16.38
2022-10-20T04:49:17.565Z,15.70
2022-10-20T04:51:47.871Z,15.65
2022-10-20T04:54:17.733Z,16.30
2022-10-20T04:56:48.094Z,16.33
2022-10-20T04:59:18.053Z,17.15
2022-10-20T05:01:47.997Z,16.08
2022-10-20T05:04:22.969Z,15.63
2022-10-20T05:06:52.966Z,15.90
2022-10-20T05:09:22.911Z,17.88
2022-10-20T05:11:52.932Z,17.02
2022-10-20T05:14:23.053Z,17.13
2022-10-20T05:16:53.869Z,17.63
2022-10-20T05:19:23.877Z,15.32
2022-10-20T05:21:53.801Z,16.23
2022-10-20T05:24:26.505Z,16.15
2022-10-20T05:26:59.216Z,15.82
2022-10-20T05:29:29.214Z,16.65
2022-10-20T05:31:59.062Z,15.38
2022-10-20T05:34:28.973Z,14.63
2022-10-20T05:36:59.063Z,13.95
2022-10-20T05:39:28.999Z,14.50
2022-10-20T05:41:58.891Z,14.65
2022-10-20T05:44:28.733Z,14.27
2022-10-20T05:46:58.658Z,13.90
2022-10-20T05:49:28.516Z,14.77
2022-10-20T05:51:58.400Z,15.25
2022-10-20T05:54:28.421Z,15.60
2022-10-20T05:56:58.333Z,14.93
2022-10-20T05:59:28.271Z,14.63
2022-10-20T06:01:58.178Z,15.05
2022-10-20T06:04:29.827Z,14.07
2022-10-20T06:07:00.387Z,13.57
2022-10-20T06:09:30.626Z,14.05
2022-10-20T06:12:01.545Z,14.85
2022-10-20T06:14:31.728Z,14.15
2022-10-20T06:17:02.875Z,14.82
2022-10-20T06:19:32.487Z,14.73
2022-10-20T06:22:05.455Z,15.10
2022-10-20T06:24:36.789Z,14.70
2022-10-20T06:27:06.477Z,14.18
2022-10-20T06:29:35.994Z,14.35
2022-10-20T06:32:05.616Z,15.18
2022-10-20T06:34:35.207Z,14.15
2022-10-20T06:37:04.759Z,13.95
2022-10-20T06:39:34.333Z,14.75
2022-10-20T06:42:09.497Z,14.27
2022-10-20T06:44:41.492Z,12.45
2022-10-20T06:47:13.101Z,13.32
2022-10-20T06:49:42.647Z,13.35
2022-10-20T06:52:13.569Z,12.38
2022-10-20T06:54:43.145Z,13.00
2022-10-20T06:57:13.038Z,12.98
2022-10-20T06:59:42.486Z,12.60
2022-10-20T07:02:14.158Z,14.13
2022-10-20T07:04:43.814Z,13.25
2022-10-20T07:07:13.324Z,12.63
2022-10-20T07:09:42.998Z,12.95
2022-10-20T07:12:13.048Z,12.65
2022-10-20T07:14:42.685Z,13.18
2022-10-20T07:17:13.382Z,12.77
2022-10-20T07:19:43.264Z,12.93
2022-10-20T07:22:13.241Z,11.50
2022-10-20T07:24:43.241Z,11.63
2022-10-20T07:27:13.126Z,11.50
2022-10-20T07:29:43.113Z,11.60
2022-10-20T07:32:13.017Z,13.02
2022-10-20T07:34:42.850Z,11.93
2022-10-20T07:37:12.674Z,12.75
2022-10-20T07:39:42.485Z,11.75
2022-10-20T07:42:12.640Z,11.57
2022-10-20T07:44:42.519Z,12.05
2022-10-20T07:47:12.395Z,12.48
2022-10-20T07:49:44.429Z,12.48
2022-10-20T07:52:17.956Z,12.48
2022-10-20T07:54:48.010Z,12.07
2022-10-20T07:57:17.943Z,12.10
2022-10-20T07:59:47.915Z,12.05
2022-10-20T08:02:18.102Z,11.90
2022-10-20T08:04:48.260Z,11.52
2022-10-20T08:07:21.266Z,11.60
2022-10-20T08:09:51.266Z,12.93
2022-10-20T08:12:21.136Z,11.80
2022-10-20T08:14:51.016Z,11.63
2022-10-20T08:17:21.372Z,12.25
2022-10-20T08:20:01.136Z,12.13
2022-10-20T08:22:30.686Z,11.45
2022-10-20T08:25:00.292Z,11.73
2022-10-20T08:27:29.814Z,12.35
2022-10-20T08:30:12.246Z,12.30
2022-10-20T08:32:42.091Z,12.32
2022-10-20T08:35:12.206Z,13.13
2022-10-20T08:37:43.569Z,12.85
2022-10-20T08:40:23.444Z,12.48
2022-10-20T08:42:54.107Z,13.10
2022-10-20T08:45:27.688Z,11.95
2022-10-20T08:48:00.514Z,13.02
2022-10-20T08:50:32.140Z,12.70
2022-10-20T08:53:03.207Z,12.63
2022-10-20T08:55:35.075Z,12.10
2022-10-20T08:58:14.379Z,13.30
2022-10-20T09:00:45.039Z,13.63
2022-10-20T09:03:32.847Z,13.95
2022-10-20T09:06:22.125Z,13.43
2022-10-20T09:08:52.058Z,14.00
2022-10-20T09:11:27.383Z,14.13
2022-10-20T09:13:57.025Z,14.05
2022-10-20T09:16:42.035Z,12.95
2022-10-20T09:19:22.387Z,13.20
2022-10-20T09:22:00.411Z,12.93
2022-10-20T09:27:21.578Z,13.35
2022-10-20T09:29:51.256Z,12.40
2022-10-20T09:35:29.328Z,14.27
2022-10-20T09:38:26.529Z,13.18
2022-10-20T09:41:17.213Z,12.18
2022-10-20T09:43:58.216Z,13.15
2022-10-20T09:46:40.806Z,12.90
2022-10-20T09:49:23.299Z,13.07
2022-10-20T09:51:58.502Z,13.63
2022-10-20T09:54:28.948Z,12.57
2022-10-20T09:57:09.987Z,11.65
2022-10-20T09:59:43.507Z,12.57
2022-10-20T10:02:34.153Z,13.52
2022-10-20T10:05:23.675Z,12.68
2022-10-20T10:08:01.670Z,12.55
2022-10-20T10:15:40.241Z,13.02
2022-10-20T10:18:24.893Z,13.23
2022-10-20T10:21:17.114Z,11.63
2022-10-20T10:24:00.989Z,13.23
2022-10-20T10:26:58.337Z,12.15
2022-10-20T10:29:32.114Z,12.55
2022-10-20T10:32:25.815Z,12.85
2022-10-20T10:35:19.482Z,12.50
2022-10-20T10:37:50.934Z,13.57
2022-10-20T10:40:34.438Z,14.30
2022-10-20T10:43:31.461Z,14.55
2022-10-20T10:46:10.983Z,14.73
2022-10-20T10:49:20.306Z,15.77
2022-10-20T10:52:16.923Z,16.23
2022-10-20T10:55:44.097Z,15.60
2022-10-20T10:58:43.863Z,16.20
2022-10-20T11:01:34.274Z,15.85
2022-10-20T11:04:40.706Z,16.63
2022-10-20T11:07:38.161Z,17.58
2022-10-20T11:10:46.969Z,16.65
2022-10-20T11:13:55.744Z,17.23
2022-10-20T11:16:57.076Z,16.60
2022-10-20T11:19:42.621Z,16.80
2022-10-20T11:22:44.859Z,16.45
2022-10-20T11:25:43.747Z,16.60
2022-10-20T11:28:32.231Z,16.38
2022-10-20T11:31:02.544Z,17.58
2022-10-20T11:33:45.902Z,16.23
2022-10-20T11:36:21.559Z,16.67
2022-10-20T11:38:58.015Z,16.05
2022-10-20T11:41:45.229Z,17.20
2022-10-20T11:44:37.114Z,17.55
2022-10-20T11:47:14.748Z,17.80
2022-10-20T11:49:45.606Z,17.63
2022-10-20T11:52:49.939Z,17.42
2022-10-20T11:55:58.626Z,17.92
2022-10-20T11:59:07.402Z,17.02
2022-10-20T12:02:00.570Z,17.10
2022-10-20T12:05:09.313Z,17.02
2022-10-20T12:08:30.597Z,16.77
2022-10-20T12:11:39.722Z,16.88
2022-10-20T12:14:33.726Z,17.13
2022-10-20T12:17:35.629Z,16.55
2022-10-20T12:20:44.326Z,17.30
2022-10-20T12:23:55.010Z,15.85
2022-10-20T12:27:03.708Z,16.73
2022-10-20T12:29:51.273Z,17.60
2022-10-20T12:32:53.781Z,16.55
2022-10-20T12:35:32.720Z,17.85
2022-10-20T12:38:11.707Z,17.73
2022-10-20T12:40:56.793Z,17.10
2022-10-20T12:43:47.512Z,16.10
2022-10-20T12:46:25.563Z,16.88
2022-10-20T12:51:49.673Z,17.27
2022-10-20T12:54:44.988Z,16.35
2022-10-20T12:57:43.012Z,16.88
2022-10-20T13:00:53.030Z,16.70
2022-10-20T13:03:52.554Z,17.58
2022-10-20T13:06:42.809Z,17.08
2022-10-20T13:09:23.867Z,17.33
2022-10-20T13:12:06.026Z,17.95
2022-10-20T13:14:51.079Z,17.52
2022-10-20T13:17:27.584Z,16.58
2022-10-20T13:20:04.818Z,17.15
2022-10-20T13:22:50.413Z,17.53
2022-10-20T13:25:55.114Z,16.25
2022-10-20T13:28:30.971Z,16.17
2022-10-20T13:31:39.792Z,16.40
2022-10-20T13:34:33.695Z,21.17
2022-10-20T13:37:39.505Z,16.15
2022-10-20T13:40:24.080Z,16.15
2022-10-20T13:43:20.804Z,15.88
2022-10-20T13:46:23.960Z,15.48
2022-10-20T13:49:18.284Z,15.77
2022-10-20T13:51:53.715Z,16.08
2022-10-20T13:54:28.324Z,17.20
2022-10-20T13:56:59.008Z,18.42
2022-10-20T13:59:32.132Z,18.20
2022-10-20T14:02:21.010Z,16.83
2022-10-20T14:05:03.469Z,17.55
2022-10-20T14:07:41.865Z,17.40
2022-10-20T14:10:50.588Z,16.73
2022-10-20T14:13:24.003Z,18.42
2022-10-20T14:16:00.372Z,19.15
2022-10-20T14:18:37.608Z,18.08
2022-10-20T14:21:21.838Z,18.27
2022-10-20T14:23:53.437Z,18.92
2022-10-20T14:26:24.807Z,18.67
2022-10-20T14:28:55.331Z,17.75
2022-10-20T14:31:26.763Z,16.95
2022-10-20T14:33:56.898Z,18.67
2022-10-20T14:36:30.272Z,17.23
2022-10-20T14:39:05.806Z,18.10
2022-10-20T14:41:37.512Z,17.83
2022-10-20T14:44:17.379Z,17.13
2022-10-20T14:46:54.991Z,17.38
2022-10-20T14:49:35.687Z,17.88
2022-10-20T14:52:29.045Z,18.70
2022-10-20T14:54:59.330Z,17.38
2022-10-20T14:57:39.546Z,17.30
2022-10-20T15:00:31.072Z,19.10
2022-10-20T15:03:04.853Z,19.15
2022-10-20T15:05:39.419Z,18.98
2022-10-20T15:08:32.851Z,18.08
2022-10-20T15:11:02.921Z,18.83
2022-10-20T15:13:34.959Z,19.48
2022-10-20T15:16:06.331Z,18.65
2022-10-20T15:18:39.297Z,17.88
2022-10-20T15:21:10.791Z,19.33
2022-10-20T15:23:40.627Z,17.83
2022-10-20T15:26:16.323Z,18.80
2022-10-20T15:28:51.336Z,18.98
2022-10-20T15:31:30.603Z,19.20
2022-10-20T15:34:01.131Z,18.92
2022-10-20T15:36:41.871Z,18.48
2022-10-20T15:39:14.059Z,19.80
2022-10-20T15:41:43.947Z,21.70
2022-10-20T15:44:26.141Z,19.88
2022-10-20T15:46:56.238Z,21.95
2022-10-20T15:49:26.063Z,21.50
2022-10-20T15:51:55.916Z,20.25
2022-10-20T15:54:26.060Z,20.08
2022-10-20T15:56:55.966Z,21.35
2022-10-20T15:59:25.882Z,20.27
2022-10-20T16:01:55.762Z,19.95
2022-10-20T16:04:33.050Z,21.27
2022-10-20T16:07:03.424Z,21.80
2022-10-20T16:09:33.365Z,21.10
2022-10-20T16:12:03.174Z,20.70
2022-10-20T16:14:32.932Z,19.73
2022-10-20T16:17:02.801Z,20.48
2022-10-20T16:19:34.046Z,21.00
2022-10-20T16:22:03.994Z,20.85
2022-10-20T16:24:33.800Z,20.95
2022-10-20T16:27:07.415Z,21.67
2022-10-20T16:29:36.969Z,20.33
2022-10-20T16:32:06.639Z,19.25
2022-10-20T16:34:36.381Z,21.20
2022-10-20T16:37:06.363Z,22.85
2022-10-20T16:39:35.838Z,21.17
2022-10-20T16:42:05.384Z,20.75
2022-10-20T16:44:44.260Z,19.80
2022-10-20T16:47:13.842Z,20.27
2022-10-20T16:49:43.387Z,20.33
2022-10-20T16:52:12.998Z,21.65
2022-10-20T16:54:42.708Z,19.38
2022-10-20T16:57:14.321Z,19.90
2022-10-20T16:59:46.898Z,21.27
2022-10-20T17:02:16.443Z,19.15
2022-10-20T17:04:51.119Z,20.08
2022-10-20T17:07:20.724Z,19.25
2022-10-20T17:09:50.214Z,19.08
2022-10-20T17:12:20.307Z,19.15
2022-10-20T17:14:49.846Z,18.20
2022-10-20T17:17:19.670Z,19.65
2022-10-20T17:19:49.767Z,19.73
2022-10-20T17:22:19.364Z,18.00
2022-10-20T17:24:48.958Z,18.13
2022-10-20T17:27:18.726Z,18.38
2022-10-20T17:29:52.550Z,18.63
2022-10-20T17:32:22.098Z,17.92
2022-10-20T17:34:52.632Z,18.55
2022-10-20T17:37:22.137Z,17.67
2022-10-20T17:39:54.653Z,18.00
2022-10-20T17:42:28.197Z,17.65
2022-10-20T17:44:57.750Z,16.95
2022-10-20T17:47:27.201Z,17.35
2022-10-20T17:49:56.837Z,19.00
2022-10-20T17:52:26.332Z,17.30
2022-10-20T17:54:55.873Z,18.73
2022-10-20T17:57:25.459Z,17.50
2022-10-20T17:59:58.034Z,17.08
2022-10-20T18:02:28.812Z,17.13
2022-10-20T18:04:58.461Z,16.17
2022-10-20T18:07:28.046Z,15.75
2022-10-20T18:09:57.819Z,16.33
2022-10-20T18:12:27.379Z,16.77
2022-10-20T18:14:57.109Z,15.80
2022-10-20T18:17:26.908Z,15.07
2022-10-20T18:19:59.250Z,15.30
2022-10-20T18:22:29.478Z,16.23
2022-10-20T18:24:58.986Z,15.85
2022-10-20T18:27:28.624Z,15.73
2022-10-20T18:29:58.102Z,15.93
2022-10-20T18:32:27.593Z,16.75
2022-10-20T18:34:57.113Z,17.10
2022-10-20T18:37:26.627Z,14.63
2022-10-20T18:39:56.203Z,14.98
2022-10-20T18:42:25.808Z,15.35
2022-10-20T18:44:55.412Z,15.90
2022-10-20T18:47:24.883Z,15.70
2022-10-20T18:49:54.399Z,15.60
2022-10-20T18:52:23.948Z,15.35
2022-10-20T18:54:53.479Z,14.75
2022-10-20T18:57:23.070Z,14.45
2022-10-20T18:59:52.749Z,14.68
2022-10-20T19:02:22.215Z,14.80
2022-10-20T19:04:51.794Z,13.98
2022-10-20T19:07:21.339Z,15.02
2022-10-20T19:09:55.450Z,14.68
2022-10-20T19:12:25.292Z,14.07
2022-10-20T19:14:54.925Z,14.45
2022-10-20T19:17:24.633Z,15.15
2022-10-20T19:19:56.217Z,14.63
2022-10-20T19:22:29.177Z,14.15
2022-10-20T19:24:59.326Z,13.73
2022-10-20T19:27:29.186Z,14.27
2022-10-20T19:29:59.081Z,13.57
2022-10-20T19:32:28.962Z,13.80
2022-10-20T19:34:58.883Z,14.57
2022-10-20T19:37:28.787Z,14.15
2022-10-20T19:39:58.764Z,13.65
2022-10-20T19:42:28.572Z,14.00
2022-10-20T19:44:58.445Z,13.88
2022-10-20T19:47:28.333Z,13.98
2022-10-20T19:49:58.142Z,13.63
2022-10-20T19:52:27.997Z,13.25
2022-10-20T19:54:57.885Z,13.45
2022-10-20T19:57:27.811Z,13.27
2022-10-20T19:59:57.703Z,13.55
2022-10-20T20:02:27.511Z,12.90
2022-10-20T20:04:57.344Z,12.52
2022-10-20T20:07:27.207Z,13.10
2022-10-20T20:09:57.039Z,11.88
2022-10-20T20:12:27.039Z,12.50
2022-10-20T20:14:58.695Z,13.35
2022-10-20T20:17:29.412Z,12.13
2022-10-20T20:19:59.587Z,11.98
2022-10-20T20:22:29.466Z,12.02
2022-10-20T20:24:59.373Z,11.82
2022-10-20T20:27:29.284Z,12.50
2022-10-20T20:30:00.841Z,12.98
2022-10-20T20:32:34.541Z,11.45
2022-10-20T20:35:06.719Z,12.43
2022-10-20T20:37:37.266Z,13.32
2022-10-20T20:40:07.884Z,13.57
2022-10-20T20:42:37.713Z,12.90
2022-10-20T20:45:07.963Z,13.18
2022-10-20T20:47:37.974Z,13.38
2022-10-20T20:50:08.828Z,12.40
2022-10-20T20:52:38.599Z,11.82
2022-10-20T20:55:08.685Z,12.80
2022-10-20T20:57:38.856Z,14.55
2022-10-20T21:00:09.523Z,14.15
2022-10-20T21:02:39.332Z,12.20
2022-10-20T21:05:09.572Z,13.80
2022-10-20T21:07:39.733Z,13.45
2022-10-20T21:10:11.559Z,12.98
2022-10-20T21:12:41.592Z,13.85
2022-10-20T21:15:11.998Z,12.10
2022-10-20T21:17:42.436Z,11.90
2022-10-20T21:20:12.367Z,12.63
2022-10-20T21:22:41.898Z,13.48
2022-10-20T21:25:11.418Z,12.63
2022-10-20T21:27:40.998Z,12.85
2022-10-20T21:30:10.987Z,12.05
2022-10-20T21:32:40.719Z,12.02
2022-10-20T21:35:10.555Z,11.45
2022-10-20T21:37:40.127Z,11.88
2022-10-20T21:40:10.206Z,12.48
2022-10-20T21:42:40.081Z,11.43
2022-10-20T21:45:10.324Z,11.05
2022-10-20T21:47:39.767Z,10.85
2022-10-20T21:50:09.597Z,11.60
2022-10-20T21:52:40.465Z,11.23
2022-10-20T21:55:10.231Z,10.27
2022-10-20T21:57:40.039Z,10.20
2022-10-20T22:00:11.319Z,10.80
2022-10-20T22:02:40.759Z,9.68
2022-10-20T22:05:10.379Z,9.13
2022-10-20T22:07:40.318Z,9.43
2022-10-20T22:10:10.341Z,10.15
2022-10-20T22:12:39.820Z,9.98
2022-10-20T22:15:09.877Z,9.50
2022-10-20T22:17:40.617Z,9.38
2022-10-20T22:20:10.894Z,8.93
2022-10-20T22:22:40.595Z,9.25
2022-10-20T22:25:10.751Z,10.02
2022-10-20T22:27:43.032Z,9.82
2022-10-20T22:30:13.410Z,8.45
2022-10-20T22:32:43.150Z,9.77
2022-10-20T22:35:12.671Z,9.88
2022-10-20T22:37:42.211Z,9.05
2022-10-20T22:40:12.130Z,8.85
2022-10-20T22:42:41.766Z,10.80
2022-10-20T22:45:12.294Z,11.55
2022-10-20T22:47:41.860Z,10.63
2022-10-20T22:50:11.653Z,12.02
2022-10-20T22:52:41.288Z,11.07
2022-10-20T22:55:10.974Z,10.88
2022-10-20T22:57:40.526Z,11.00
2022-10-20T23:00:10.655Z,10.68
2022-10-20T23:02:40.532Z,10.77
2022-10-20T23:05:10.722Z,14.88
2022-10-20T23:07:40.599Z,21.23
2022-10-20T23:10:10.693Z,24.05
2022-10-20T23:12:40.573Z,23.00
2022-10-20T23:15:10.493Z,20.10
2022-10-20T23:17:41.611Z,20.10
2022-10-20T23:20:11.938Z,18.13
2022-10-20T23:22:41.827Z,17.50
2022-10-20T23:25:11.909Z,17.30
2022-10-20T23:27:41.816Z,15.65
2022-10-20T23:30:12.195Z,17.10
2022-10-20T23:32:42.263Z,15.13
2022-10-20T23:35:12.250Z,14.95
2022-10-20T23:37:42.093Z,14.20
2022-10-20T23:40:12.573Z,13.38
2022-10-20T23:42:42.286Z,12.70
2022-10-20T23:45:13.051Z,11.68
2022-10-20T23:47:42.938Z,11.13
2022-10-20T23:50:12.825Z,11.52
2022-10-20T23:52:42.661Z,11.13
2022-10-20T23:55:15.387Z,10.68
2022-10-20T23:57:45.750Z,10.82
